createdAt,value
2023-02-04T00:00:57.466Z,6.80
2023-02-04T00:04:20.421Z,6.90
2023-02-04T00:07:41.997Z,6.80
2023-02-04T00:11:03.667Z,6.90
2023-02-04T00:14:25.284Z,6.80
2023-02-04T00:17:46.888Z,6.80
2023-02-04T00:21:09.809Z,6.80
2023-02-04T00:24:31.393Z,6.80
2023-02-04T00:27:53.119Z,6.70
2023-02-04T00:31:14.838Z,6.70
2023-02-04T00:34:36.456Z,6.70
2023-02-04T00:37:59.708Z,6.70
2023-02-04T00:41:21.295Z,6.70
2023-02-04T00:44:43.114Z,6.80
2023-02-04T00:48:04.829Z,6.80
2023-02-04T00:51:26.438Z,6.80
2023-02-04T00:54:49.368Z,6.80
2023-02-04T00:58:10.948Z,6.80
2023-02-04T01:01:32.588Z,6.80
2023-02-04T01:04:54.222Z,6.90
2023-02-04T01:08:15.901Z,6.90
2023-02-04T01:11:38.896Z,6.90
2023-02-04T01:15:00.557Z,6.90
2023-02-04T01:18:22.146Z,6.90
2023-02-04T01:21:43.757Z,6.90
2023-02-04T01:25:05.842Z,6.90
2023-02-04T01:28:28.747Z,6.80
2023-02-04T01:31:50.346Z,6.80
2023-02-04T01:35:11.992Z,6.90
2023-02-04T01:38:33.724Z,6.80
2023-02-04T01:41:55.378Z,6.80
2023-02-04T01:45:18.408Z,6.80
2023-02-04T01:48:40.175Z,6.80
2023-02-04T01:52:02.096Z,6.80
2023-02-04T01:55:26.287Z,6.80
2023-02-04T01:58:48.410Z,6.80
2023-02-04T02:02:28.474Z,6.80
2023-02-04T02:05:52.669Z,6.70
2023-02-04T02:09:14.300Z,6.60
2023-02-04T02:12:36.106Z,6.50
2023-02-04T02:15:57.701Z,6.50
2023-02-04T02:19:22.257Z,6.50
2023-02-04T02:22:50.650Z,6.40
2023-02-04T02:26:13.860Z,6.40
2023-02-04T02:29:36.235Z,6.30
2023-02-04T02:32:57.971Z,6.20
2023-02-04T02:36:19.598Z,6.10
2023-02-04T02:39:42.694Z,6.00
2023-02-04T02:43:05.901Z,5.90
2023-02-04T02:46:27.713Z,5.80
2023-02-04T02:49:50.344Z,5.80
2023-02-04T02:53:12.720Z,5.80
2023-02-04T02:56:34.361Z,5.80
2023-02-04T02:59:57.280Z,5.70
2023-02-04T03:03:20.239Z,5.70
2023-02-04T03:06:41.878Z,5.70
2023-02-04T03:10:04.074Z,5.60
2023-02-04T03:13:25.767Z,5.60
2023-02-04T03:16:48.801Z,5.50
2023-02-04T03:20:11.208Z,5.50
2023-02-04T03:23:33.028Z,5.60
2023-02-04T03:26:54.892Z,5.60
2023-02-04T03:30:16.532Z,5.60
2023-02-04T03:33:39.482Z,5.60
2023-02-04T03:37:01.090Z,5.60
2023-02-04T03:40:22.698Z,5.60
2023-02-04T03:43:44.303Z,5.70
2023-02-04T03:47:05.907Z,5.60
2023-02-04T03:50:28.849Z,5.60
2023-02-04T03:53:50.465Z,5.50
2023-02-04T03:57:12.051Z,5.50
2023-02-04T04:00:33.870Z,5.50
2023-02-04T04:03:55.767Z,5.50
2023-02-04T04:07:18.746Z,5.50
2023-02-04T04:10:41.964Z,5.50
2023-02-04T04:14:03.733Z,5.50
2023-02-04T04:17:25.331Z,5.50
2023-02-04T04:20:46.941Z,5.50
2023-02-04T04:24:09.903Z,5.50
2023-02-04T04:27:31.869Z,5.50
2023-02-04T04:30:53.498Z,5.50
2023-02-04T04:34:15.114Z,5.50
2023-02-04T04:37:36.700Z,5.50
2023-02-04T04:40:59.658Z,5.50
2023-02-04T04:44:21.256Z,5.40
2023-02-04T04:47:42.852Z,5.50
2023-02-04T04:51:04.547Z,5.50
2023-02-04T04:54:26.137Z,5.50
2023-02-04T04:57:49.044Z,5.50
2023-02-04T05:01:10.639Z,5.50
2023-02-04T05:04:32.381Z,5.50
2023-02-04T05:07:54.058Z,5.50
2023-02-04T05:11:15.737Z,5.50
2023-02-04T05:14:38.690Z,5.50
2023-02-04T05:18:00.284Z,5.50
2023-02-04T05:21:21.845Z,5.50
2023-02-04T05:24:43.438Z,5.40
2023-02-04T05:28:05.145Z,5.40
2023-02-04T05:31:28.480Z,5.50
2023-02-04T05:34:50.125Z,5.40
2023-02-04T05:38:11.978Z,5.40
2023-02-04T05:41:33.703Z,5.40
2023-02-04T05:44:55.311Z,5.40
2023-02-04T05:48:18.223Z,5.40
2023-02-04T05:51:39.803Z,5.30
2023-02-04T05:55:01.527Z,5.30
2023-02-04T05:58:23.128Z,5.30
2023-02-04T06:01:44.718Z,5.30
2023-02-04T06:05:08.015Z,5.30
2023-02-04T06:08:29.594Z,5.30
2023-02-04T06:11:51.205Z,5.30
2023-02-04T06:15:12.886Z,5.30
2023-02-04T06:18:34.482Z,5.30
2023-02-04T06:21:57.433Z,5.30
2023-02-04T06:25:19.099Z,5.30
2023-02-04T06:28:40.786Z,5.30
2023-02-04T06:32:02.535Z,5.30
2023-02-04T06:35:24.190Z,5.30
2023-02-04T06:38:47.113Z,5.30
2023-02-04T06:42:08.968Z,5.20
2023-02-04T06:45:30.553Z,5.20
2023-02-04T06:48:52.176Z,5.20
2023-02-04T06:52:13.784Z,5.20
2023-02-04T06:55:36.857Z,5.20
2023-02-04T06:58:58.465Z,5.20
2023-02-04T07:02:20.141Z,5.20
2023-02-04T07:05:41.758Z,5.20
2023-02-04T07:09:03.426Z,5.20
2023-02-04T07:12:26.365Z,5.20
2023-02-04T07:15:48.006Z,5.20
2023-02-04T07:19:09.745Z,5.20
2023-02-04T07:22:31.351Z,5.20
2023-02-04T07:25:52.933Z,5.20
2023-02-04T07:29:24.165Z,5.30
2023-02-04T07:32:46.975Z,5.30
2023-02-04T07:36:08.575Z,5.30
2023-02-04T07:39:30.168Z,5.30
2023-02-04T07:42:51.869Z,5.30
2023-02-04T07:46:15.222Z,5.30
2023-02-04T07:49:36.979Z,5.40
2023-02-04T07:52:58.602Z,5.30
2023-02-04T07:56:20.345Z,5.40
2023-02-04T07:59:42.693Z,5.40
2023-02-04T08:03:05.631Z,5.40
2023-02-04T08:06:27.252Z,5.40
2023-02-04T08:09:49.712Z,5.40
2023-02-04T08:13:12.242Z,5.50
2023-02-04T08:16:33.932Z,5.50
2023-02-04T08:19:56.927Z,5.60
2023-02-04T08:23:18.959Z,5.60
2023-02-04T08:26:41.118Z,5.70
2023-02-04T08:30:02.907Z,5.80
2023-02-04T08:33:24.619Z,5.90
2023-02-04T08:36:47.625Z,5.90
2023-02-04T08:40:09.862Z,5.90
2023-02-04T08:43:31.461Z,6.00
2023-02-04T08:46:53.152Z,6.00
2023-02-04T08:50:14.874Z,6.10
2023-02-04T08:53:37.843Z,6.20
2023-02-04T08:56:59.455Z,6.20
2023-02-04T09:00:21.316Z,6.20
2023-02-04T09:03:42.917Z,6.20
2023-02-04T09:07:04.490Z,6.20
2023-02-04T09:10:27.486Z,6.60
2023-02-04T09:13:49.076Z,7.40
2023-02-04T09:17:10.674Z,7.70
2023-02-04T09:20:32.598Z,7.60
2023-02-04T09:23:54.420Z,7.50
2023-02-04T09:27:17.390Z,7.40
2023-02-04T09:30:39.602Z,7.10
2023-02-04T09:34:01.201Z,6.90
2023-02-04T09:37:23.015Z,6.80
2023-02-04T09:40:47.042Z,6.70
2023-02-04T09:44:14.492Z,6.70
2023-02-04T09:47:36.396Z,6.60
2023-02-04T09:51:03.406Z,6.50
2023-02-04T09:54:25.163Z,6.50
2023-02-04T09:57:46.913Z,6.50
2023-02-04T10:01:12.563Z,6.50
2023-02-04T10:04:34.227Z,6.50
2023-02-04T10:07:56.574Z,6.60
2023-02-04T10:11:19.874Z,6.80
2023-02-04T10:14:41.645Z,6.90
2023-02-04T10:18:06.389Z,7.10
2023-02-04T10:21:28.721Z,7.30
2023-02-04T10:24:50.295Z,7.50
2023-02-04T10:28:11.926Z,7.60
2023-02-04T10:31:34.705Z,7.50
2023-02-04T10:34:58.561Z,7.50
2023-02-04T10:38:20.322Z,7.50
2023-02-04T10:41:47.389Z,7.60
2023-02-04T10:45:21.313Z,7.50
2023-02-04T10:48:42.918Z,7.50
2023-02-04T10:52:13.416Z,7.30
2023-02-04T10:55:38.318Z,7.30
2023-02-04T10:59:00.110Z,7.40
2023-02-04T11:02:33.323Z,7.70
2023-02-04T11:05:56.467Z,8.10
2023-02-04T11:09:19.813Z,8.30
2023-02-04T11:12:42.550Z,8.30
2023-02-04T11:16:08.669Z,8.10
2023-02-04T11:19:31.840Z,7.80
2023-02-04T11:22:53.452Z,7.60
2023-02-04T11:26:17.345Z,7.50
2023-02-04T11:29:39.012Z,7.50
2023-02-04T11:33:02.321Z,7.50
2023-02-04T11:36:24.145Z,7.50
2023-02-04T11:39:46.598Z,7.60
2023-02-04T11:43:11.378Z,7.80
2023-02-04T11:46:33.074Z,8.00
2023-02-04T11:49:56.228Z,8.00
2023-02-04T11:53:17.808Z,8.20
2023-02-04T11:56:39.559Z,8.20
2023-02-04T12:00:02.676Z,8.00
2023-02-04T12:03:25.703Z,8.00
2023-02-04T12:06:56.767Z,8.00
2023-02-04T12:10:27.017Z,8.20
2023-02-04T12:13:50.038Z,8.50
2023-02-04T12:17:17.413Z,8.50
2023-02-04T12:20:39.301Z,8.50
2023-02-04T12:24:00.912Z,8.50
2023-02-04T12:27:22.515Z,8.40
2023-02-04T12:30:44.197Z,8.20
2023-02-04T12:34:07.184Z,7.90
2023-02-04T12:37:28.784Z,7.70
2023-02-04T12:40:50.363Z,7.50
2023-02-04T12:44:11.953Z,7.30
2023-02-04T12:47:33.559Z,7.30
2023-02-04T12:50:56.539Z,7.30
2023-02-04T12:54:18.171Z,7.30
2023-02-04T12:57:41.536Z,7.30
2023-02-04T13:01:04.430Z,7.30
2023-02-04T13:04:26.215Z,7.30
2023-02-04T13:07:49.180Z,7.40
2023-02-04T13:11:11.894Z,7.50
2023-02-04T13:14:33.499Z,7.50
2023-02-04T13:17:55.724Z,7.50
2023-02-04T13:21:17.391Z,7.70
2023-02-04T13:24:40.350Z,8.00
2023-02-04T13:28:02.004Z,8.20
2023-02-04T13:31:24.445Z,8.50
2023-02-04T13:34:46.049Z,8.60
2023-02-04T13:38:07.630Z,8.60
2023-02-04T13:41:30.588Z,8.50
2023-02-04T13:44:52.252Z,8.40
2023-02-04T13:48:14.204Z,8.30
2023-02-04T13:51:35.898Z,8.10
2023-02-04T13:54:58.468Z,8.00
2023-02-04T13:58:21.563Z,7.90
2023-02-04T14:01:43.203Z,7.70
2023-02-04T14:05:05.141Z,7.50
2023-02-04T14:08:26.728Z,7.30
2023-02-04T14:11:48.455Z,7.20
2023-02-04T14:15:11.407Z,7.20
2023-02-04T14:18:33.003Z,7.10
2023-02-04T14:21:54.590Z,7.00
2023-02-04T14:25:16.177Z,6.90
2023-02-04T14:28:37.768Z,6.80
2023-02-04T14:32:01.645Z,6.80
2023-02-04T14:35:24.190Z,6.70
2023-02-04T14:38:46.063Z,6.70
2023-02-04T14:42:07.673Z,6.80
2023-02-04T14:45:29.328Z,6.80
2023-02-04T14:48:52.283Z,6.80
2023-02-04T14:52:15.267Z,6.80
2023-02-04T14:55:37.560Z,6.80
2023-02-04T14:58:59.430Z,6.80
2023-02-04T15:02:21.267Z,6.80
2023-02-04T15:05:44.218Z,6.80
2023-02-04T15:09:05.809Z,6.80
2023-02-04T15:12:27.391Z,6.80
2023-02-04T15:15:48.988Z,6.80
2023-02-04T15:19:10.842Z,6.80
2023-02-04T15:22:33.757Z,6.80
2023-02-04T15:25:55.345Z,6.80
2023-02-04T15:29:16.968Z,6.70
2023-02-04T15:32:38.578Z,6.50
2023-02-04T15:36:00.173Z,6.30
2023-02-04T15:39:23.111Z,6.10
2023-02-04T15:42:44.723Z,6.00
2023-02-04T15:46:06.406Z,5.90
2023-02-04T15:49:28.508Z,5.80
2023-02-04T15:52:50.142Z,5.70
2023-02-04T15:56:13.089Z,5.70
2023-02-04T15:59:34.674Z,5.60
2023-02-04T16:02:56.312Z,5.60
2023-02-04T16:06:17.963Z,5.50
2023-02-04T16:09:39.745Z,5.50
2023-02-04T16:13:02.752Z,5.50
2023-02-04T16:16:25.134Z,5.50
2023-02-04T16:19:46.731Z,5.50
2023-02-04T16:23:08.305Z,5.50
2023-02-04T16:26:29.896Z,5.50
2023-02-04T16:29:54.872Z,5.50
2023-02-04T16:33:18.316Z,5.50
2023-02-04T16:36:39.905Z,5.50
2023-02-04T16:40:01.492Z,5.50
2023-02-04T16:43:23.614Z,5.50
2023-02-04T16:46:46.615Z,5.50
2023-02-04T16:50:08.660Z,5.50
2023-02-04T16:53:30.344Z,5.50
2023-02-04T16:56:51.918Z,5.50
2023-02-04T17:00:14.707Z,5.50
2023-02-04T17:03:37.630Z,5.50
2023-02-04T17:06:59.216Z,5.50
2023-02-04T17:10:23.036Z,5.50
2023-02-04T17:13:44.665Z,5.40
2023-02-04T17:17:06.265Z,5.40
2023-02-04T17:20:30.166Z,5.30
2023-02-04T17:23:51.774Z,5.20
2023-02-04T17:27:13.368Z,5.20
2023-02-04T17:30:35.039Z,5.20
2023-02-04T17:33:56.688Z,5.20
2023-02-04T17:37:19.625Z,5.10
2023-02-04T17:40:41.200Z,5.00
2023-02-04T17:44:04.049Z,4.80
2023-02-04T17:47:25.657Z,4.80
2023-02-04T17:50:47.425Z,4.80
2023-02-04T17:54:12.085Z,4.80
2023-02-04T17:57:34.192Z,4.80
2023-02-04T18:00:55.911Z,4.80
2023-02-04T18:04:17.618Z,4.80
2023-02-04T18:07:46.688Z,4.70
2023-02-04T18:11:13.021Z,4.60
2023-02-04T18:14:35.130Z,4.50
2023-02-04T18:17:57.735Z,4.50
2023-02-04T18:21:20.183Z,4.40
2023-02-04T18:24:42.499Z,4.40
2023-02-04T18:28:13.174Z,4.30
2023-02-04T18:31:36.985Z,4.20
2023-02-04T18:34:59.283Z,4.10
2023-02-04T18:38:21.899Z,4.00
2023-02-04T18:41:44.777Z,3.90
2023-02-04T18:45:18.847Z,3.80
2023-02-04T18:48:55.345Z,3.70
2023-02-04T18:52:18.151Z,3.50
2023-02-04T18:55:40.661Z,3.30
2023-02-04T18:59:02.452Z,3.10
2023-02-04T19:02:34.675Z,3.00
2023-02-04T19:05:59.913Z,2.90
2023-02-04T19:09:25.619Z,2.80
2023-02-04T19:12:48.272Z,2.70
2023-02-04T19:16:17.663Z,2.60
2023-02-04T19:19:48.739Z,2.50
2023-02-04T19:23:14.051Z,2.40
2023-02-04T19:26:38.746Z,2.30
2023-02-04T19:30:01.115Z,2.30
2023-02-04T19:33:25.565Z,2.20
2023-02-04T19:36:48.501Z,2.10
2023-02-04T19:40:28.749Z,2.00
2023-02-04T19:43:50.427Z,2.00
2023-02-04T19:47:19.784Z,1.90
2023-02-04T19:50:41.402Z,1.90
2023-02-04T19:54:16.906Z,1.90
2023-02-04T19:57:38.515Z,1.80
2023-02-04T20:01:00.985Z,1.80
2023-02-04T20:04:23.778Z,1.80
2023-02-04T20:07:45.555Z,1.70
2023-02-04T20:11:27.590Z,1.70
2023-02-04T20:14:49.860Z,1.70
2023-02-04T20:18:14.168Z,1.80
2023-02-04T20:21:37.046Z,1.80
2023-02-04T20:24:59.489Z,1.80
2023-02-04T20:28:36.130Z,2.00
2023-02-04T20:31:59.640Z,2.10
2023-02-04T20:35:42.398Z,2.10
2023-02-04T20:39:17.100Z,2.10
2023-02-04T20:42:44.675Z,2.10
2023-02-04T20:46:07.420Z,2.00
2023-02-04T20:49:38.204Z,1.90
2023-02-04T20:53:05.905Z,1.90
2023-02-04T20:56:28.555Z,1.80
2023-02-04T20:59:50.209Z,1.70
2023-02-04T21:03:23.295Z,1.60
2023-02-04T21:06:46.560Z,1.60
2023-02-04T21:10:08.272Z,1.50
2023-02-04T21:13:30.656Z,1.50
2023-02-04T21:16:52.502Z,1.40
2023-02-04T21:20:14.972Z,1.30
2023-02-04T21:23:38.622Z,1.30
2023-02-04T21:27:00.647Z,1.30
2023-02-04T21:30:22.408Z,1.30
2023-02-04T21:33:44.186Z,1.20
2023-02-04T21:37:05.754Z,1.20
2023-02-04T21:40:31.152Z,1.10
2023-02-04T21:43:52.783Z,1.10
2023-02-04T21:47:14.544Z,1.00
2023-02-04T21:50:36.674Z,1.00
2023-02-04T21:53:58.569Z,1.00
2023-02-04T21:57:21.576Z,1.00
2023-02-04T22:00:43.193Z,1.00
2023-02-04T22:04:05.877Z,1.00
2023-02-04T22:07:27.694Z,1.10
2023-02-04T22:10:50.489Z,1.20
2023-02-04T22:14:14.606Z,1.30
2023-02-04T22:17:37.112Z,1.40
2023-02-04T22:20:58.705Z,1.50
2023-02-04T22:24:21.068Z,1.60
2023-02-04T22:27:43.303Z,1.70
2023-02-04T22:31:07.058Z,1.80
2023-02-04T22:34:28.952Z,1.90
2023-02-04T22:37:50.540Z,2.00
2023-02-04T22:41:12.613Z,2.00
2023-02-04T22:44:34.409Z,2.00
2023-02-04T22:47:57.366Z,2.00
2023-02-04T22:51:18.964Z,1.90
2023-02-04T22:54:40.584Z,1.90
2023-02-04T22:58:02.188Z,1.90
2023-02-04T23:01:23.786Z,1.90
2023-02-04T23:04:47.191Z,1.90
2023-02-04T23:08:08.774Z,1.90
2023-02-04T23:11:30.365Z,2.00
2023-02-04T23:14:51.949Z,2.00
2023-02-04T23:18:13.534Z,2.10
2023-02-04T23:21:36.477Z,2.20
2023-02-04T23:24:58.082Z,2.30
2023-02-04T23:28:19.659Z,2.20
2023-02-04T23:31:41.302Z,2.10
2023-02-04T23:35:02.897Z,2.00
2023-02-04T23:38:25.874Z,2.00
2023-02-04T23:41:47.494Z,1.90
2023-02-04T23:45:09.580Z,1.90
2023-02-04T23:48:31.175Z,1.90
2023-02-04T23:51:52.748Z,1.90
2023-02-04T23:55:17.740Z,1.90
2023-02-04T23:58:39.431Z,1.90
